Aviation Digital Data Service (ADDS)

Output produced by METARs form (0332 UTC 19 July 2018)
found at http://www.aviationweather.gov/adds/metars/
 
METAR text: KHWD 190254Z 30009KT 10SM CLR 18/13 A2992 RMK AO2 SLP139 T01830128 56003
Conditions at: KHWD (HAYWARD , CA, US) observed 0254 UTC 19 July 2018
Temperature: 18.3°C (65°F)
Dewpoint: 12.8°C (55°F) [RH = 70%]
Pressure (altimeter): 29.92 inches Hg (1013.3 mb)
[Sea-level pressure: 1013.9 mb]
Winds: from the WNW (300 degrees) at 10 MPH (9 knots; 4.7 m/s)
Visibility: 10 or more miles (16+ km)
Ceiling: at least 12,000 feet AGL
Clouds: sky clear below 12,000 feet AGL
Weather: no significant weather observed at this time

METAR text: KHWD 190154Z 30012KT 10SM CLR 21/13 A2992 RMK AO2 SLP140 T02060133
Conditions at: KHWD (HAYWARD , CA, US) observed 0154 UTC 19 July 2018
Temperature: 20.6°C (69°F)
Dewpoint: 13.3°C (56°F) [RH = 63%]
Pressure (altimeter): 29.92 inches Hg (1013.3 mb)
[Sea-level pressure: 1014.0 mb]
Winds: from the WNW (300 degrees) at 14 MPH (12 knots; 6.2 m/s)
Visibility: 10 or more miles (16+ km)
Ceiling: at least 12,000 feet AGL
Clouds: sky clear below 12,000 feet AGL
Weather: no significant weather observed at this time

METAR text: KHWD 190054Z 30011KT 10SM FEW020 FEW180 22/14 A2992 RMK AO2 SLP140 T02220139
Conditions at: KHWD (HAYWARD , CA, US) observed 0054 UTC 19 July 2018
Temperature: 22.2°C (72°F)
Dewpoint: 13.9°C (57°F) [RH = 59%]
Pressure (altimeter): 29.92 inches Hg (1013.3 mb)
[Sea-level pressure: 1014.0 mb]
Winds: from the WNW (300 degrees) at 13 MPH (11 knots; 5.7 m/s)
Visibility: 10 or more miles (16+ km)
Ceiling: at least 12,000 feet AGL
Clouds: few clouds at 2000 feet AGL
few clouds at 18000 feet AGL
Weather: no significant weather observed at this time

METAR text: KHWD 182354Z 29013KT 10SM CLR 23/14 A2993 RMK AO2 SLP143 T02330139 10250 20200 56014
Conditions at: KHWD (HAYWARD , CA, US) observed 2354 UTC 18 July 2018
Temperature: 23.3°C (74°F)
Dewpoint: 13.9°C (57°F) [RH = 56%]
Pressure (altimeter): 29.93 inches Hg (1013.6 mb)
[Sea-level pressure: 1014.3 mb]
Winds: from the WNW (290 degrees) at 15 MPH (13 knots; 6.8 m/s)
Visibility: 10 or more miles (16+ km)
Ceiling: at least 12,000 feet AGL
Clouds: sky clear below 12,000 feet AGL
Weather: no significant weather observed at this time

METAR text: KHWD 182254Z 30012KT 10SM CLR 24/14 A2993 RMK AO2 SLP144 T02440144
Conditions at: KHWD (HAYWARD , CA, US) observed 2254 UTC 18 July 2018
Temperature: 24.4°C (76°F)
Dewpoint: 14.4°C (58°F) [RH = 54%]
Pressure (altimeter): 29.93 inches Hg (1013.6 mb)
[Sea-level pressure: 1014.4 mb]
Winds: from the WNW (300 degrees) at 14 MPH (12 knots; 6.2 m/s)
Visibility: 10 or more miles (16+ km)
Ceiling: at least 12,000 feet AGL
Clouds: sky clear below 12,000 feet AGL
Weather: no significant weather observed at this time

METAR text: KHWD 182154Z 29015KT 10SM CLR 25/14 A2995 RMK AO2 SLP150 T02500144
Conditions at: KHWD (HAYWARD , CA, US) observed 2154 UTC 18 July 2018
Temperature: 25.0°C (77°F)
Dewpoint: 14.4°C (58°F) [RH = 52%]
Pressure (altimeter): 29.95 inches Hg (1014.3 mb)
[Sea-level pressure: 1015.0 mb]
Winds: from the WNW (290 degrees) at 17 MPH (15 knots; 7.8 m/s)
Visibility: 10 or more miles (16+ km)
Ceiling: at least 12,000 feet AGL
Clouds: sky clear below 12,000 feet AGL
Weather: no significant weather observed at this time

METAR text: KHWD 182054Z 28014KT 10SM CLR 24/15 A2997 RMK AO2 SLP156 T02390150 58010
Conditions at: KHWD (HAYWARD , CA, US) observed 2054 UTC 18 July 2018
Temperature: 23.9°C (75°F)
Dewpoint: 15.0°C (59°F) [RH = 57%]
Pressure (altimeter): 29.97 inches Hg (1015.0 mb)
[Sea-level pressure: 1015.6 mb]
Winds: from the W (280 degrees) at 16 MPH (14 knots; 7.3 m/s)
Visibility: 10 or more miles (16+ km)
Ceiling: at least 12,000 feet AGL
Clouds: sky clear below 12,000 feet AGL
Weather: no significant weather observed at this time

METAR text: KHWD 181954Z 28010KT 10SM CLR 23/14 A2998 RMK AO2 SLP161 T02280144
Conditions at: KHWD (HAYWARD , CA, US) observed 1954 UTC 18 July 2018
Temperature: 22.8°C (73°F)
Dewpoint: 14.4°C (58°F) [RH = 59%]
Pressure (altimeter): 29.98 inches Hg (1015.3 mb)
[Sea-level pressure: 1016.1 mb]
Winds: from the W (280 degrees) at 12 MPH (10 knots; 5.2 m/s)
Visibility: 10 or more miles (16+ km)
Ceiling: at least 12,000 feet AGL
Clouds: sky clear below 12,000 feet AGL
Weather: no significant weather observed at this time